Time;durP1;ratioP1;P1;durP2;ratioP2;P2;SDS_P1;SDS_P2;PMS_P1;PMS_P2;Temp;Humidity;BMP_temperature;BMP_pressure;BME280_temperature;BME280_humidity;BME280_pressure;Samples;Min_cycle;Max_cycle;Signal;HPM_P1;HPM_P2
2022/08/08 00:01:55;;;;;;;7.47;5.25;;;13.70;99.90;;;;;;4974078;28;20085;-76
2022/08/08 00:04:26;;;;;;;9.20;5.47;;;13.70;99.90;;;;;;5009435;28;20037;-76
2022/08/08 00:07:03;;;;;;;8.40;5.57;;;13.70;99.90;;;;;;4988027;28;20060;-76
2022/08/08 00:09:53;;;;;;;7.32;5.25;;;13.70;99.90;;;;;;4987361;28;20038;-76
2022/08/08 00:12:28;;;;;;;7.53;5.55;;;13.70;99.90;;;;;;4991630;28;20074;-76
2022/08/08 00:15:11;;;;;;;8.55;5.15;;;13.60;99.90;;;;;;5019031;28;20080;-76
2022/08/08 00:17:59;;;;;;;8.13;5.80;;;13.50;99.90;;;;;;5019756;28;20034;-76
2022/08/08 00:20:27;;;;;;;9.68;5.80;;;13.50;99.90;;;;;;4977886;28;20446;-76
2022/08/08 00:23:05;;;;;;;7.22;5.70;;;13.50;99.90;;;;;;5006276;28;20518;-76
2022/08/08 00:25:37;;;;;;;8.95;5.85;;;13.40;99.90;;;;;;4973202;28;20063;-76
2022/08/08 00:28:06;;;;;;;7.43;5.93;;;13.30;99.90;;;;;;4981311;28;20038;-76
2022/08/08 00:30:36;;;;;;;9.88;6.22;;;13.30;99.90;;;;;;4975965;28;20065;-76
2022/08/08 00:33:25;;;;;;;10.90;6.07;;;13.30;99.90;;;;;;4972492;28;20165;-76
2022/08/08 00:36:10;;;;;;;11.30;6.03;;;13.30;99.90;;;;;;4988134;28;20050;-77
2022/08/08 00:38:48;;;;;;;8.05;6.05;;;13.20;99.90;;;;;;5007901;28;20395;-76
2022/08/08 00:41:26;;;;;;;7.68;5.90;;;13.20;99.90;;;;;;4994231;28;20037;-76
2022/08/08 00:44:26;;;;;;;7.45;5.38;;;13.20;99.90;;;;;;5006870;28;20042;-77
2022/08/08 00:47:18;;;;;;;6.97;4.90;;;13.10;99.90;;;;;;5010815;28;20488;-76
2022/08/08 00:50:26;;;;;;;9.40;4.78;;;13.10;99.90;;;;;;4971483;28;20067;-76
2022/08/08 00:53:36;;;;;;;8.35;5.75;;;13.00;99.90;;;;;;5019547;28;20115;-76
2022/08/08 00:56:29;;;;;;;6.75;5.03;;;13.00;99.90;;;;;;4968760;28;20041;-77
2022/08/08 00:59:28;;;;;;;7.65;6.05;;;12.90;99.90;;;;;;4992298;28;20034;-76
2022/08/08 01:02:37;;;;;;;7.50;4.93;;;13.00;99.90;;;;;;4992443;28;20507;-76
2022/08/08 01:05:44;;;;;;;8.15;5.50;;;12.90;99.90;;;;;;4996523;28;20048;-76
2022/08/08 01:08:37;;;;;;;7.68;5.47;;;12.90;99.90;;;;;;4973938;28;20077;-76
2022/08/08 01:11:31;;;;;;;10.50;6.60;;;12.90;99.90;;;;;;5008560;28;20066;-77
2022/08/08 01:14:16;;;;;;;7.55;5.55;;;12.90;99.90;;;;;;4964674;28;20034;-76
2022/08/08 01:17:03;;;;;;;8.55;6.65;;;12.90;99.90;;;;;;5023073;28;20068;-77
2022/08/08 01:20:06;;;;;;;10.38;6.07;;;12.90;99.90;;;;;;5008039;28;20034;-76
2022/08/08 01:23:00;;;;;;;8.30;5.78;;;12.90;99.90;;;;;;5009799;28;20548;-76
2022/08/08 01:25:48;;;;;;;11.15;5.80;;;13.00;99.90;;;;;;5025951;28;20052;-77
2022/08/08 01:29:10;;;;;;;10.32;6.97;;;12.90;99.90;;;;;;4992252;28;20506;-76
2022/08/08 01:32:00;;;;;;;10.07;6.05;;;12.80;99.90;;;;;;4928319;28;20050;-76
2022/08/08 01:34:44;;;;;;;7.07;5.28;;;12.80;99.90;;;;;;4924068;28;20127;-75
2022/08/08 01:37:35;;;;;;;9.52;5.82;;;12.80;99.90;;;;;;4975147;28;20061;-76
2022/08/08 01:40:15;;;;;;;8.98;5.68;;;12.80;99.90;;;;;;5009820;28;20054;-77
2022/08/08 01:43:00;;;;;;;9.93;6.53;;;12.70;99.90;;;;;;4995233;28;20046;-77
2022/08/08 01:45:57;;;;;;;11.18;6.22;;;12.70;99.90;;;;;;5012554;28;20506;-76
2022/08/08 01:48:43;;;;;;;8.48;6.15;;;12.70;99.90;;;;;;4990232;28;20053;-76
2022/08/08 01:51:50;;;;;;;7.80;5.30;;;12.60;99.90;;;;;;4992520;28;20124;-77
2022/08/08 01:54:26;;;;;;;11.82;6.97;;;12.60;99.90;;;;;;4989634;28;20050;-76
2022/08/08 01:57:20;;;;;;;9.95;5.88;;;12.60;99.90;;;;;;4995707;28;20120;-77
2022/08/08 01:59:51;;;;;;;7.35;5.20;;;12.60;99.90;;;;;;5008328;28;20040;-76
2022/08/08 02:02:27;;;;;;;8.23;5.15;;;12.60;99.90;;;;;;5005729;28;20491;-76
2022/08/08 02:05:06;;;;;;;7.10;5.20;;;12.60;99.90;;;;;;4994915;28;20037;-76
2022/08/08 02:08:06;;;;;;;6.53;4.82;;;12.60;99.90;;;;;;4990873;28;20041;-77
2022/08/08 02:10:41;;;;;;;6.45;4.97;;;12.60;99.90;;;;;;5009050;28;20049;-76
2022/08/08 02:13:13;;;;;;;8.68;5.13;;;12.50;99.90;;;;;;5008287;28;20121;-77
2022/08/08 02:15:51;;;;;;;7.90;5.00;;;12.50;99.90;;;;;;5006804;28;20073;-76
2022/08/08 02:18:25;;;;;;;6.50;4.47;;;12.50;99.90;;;;;;5022406;28;20684;-76
2022/08/08 02:24:22;;;;;;;6.50;4.85;;;12.50;99.90;;;;;;4991150;28;20030;-77
2022/08/08 02:26:53;;;;;;;8.38;5.13;;;12.50;99.90;;;;;;4990883;28;20116;-76
2022/08/08 02:29:55;;;;;;;6.50;4.65;;;12.50;99.90;;;;;;4991126;28;20034;-76
2022/08/08 02:32:31;;;;;;;5.30;4.38;;;12.40;99.90;;;;;;4990183;28;20034;-76
2022/08/08 02:35:02;;;;;;;5.35;4.28;;;12.50;99.90;;;;;;5022331;28;20399;-76
2022/08/08 02:37:34;;;;;;;4.38;3.72;;;12.50;99.90;;;;;;5022531;28;21489;-77
2022/08/08 02:40:12;;;;;;;5.43;4.32;;;12.50;99.90;;;;;;4994209;28;20034;-76
2022/08/08 02:43:27;;;;;;;5.75;4.05;;;12.40;99.90;;;;;;4989710;28;20523;-76
2022/08/08 02:46:17;;;;;;;7.35;4.90;;;12.40;99.90;;;;;;5007223;28;20479;-77
2022/08/08 02:48:52;;;;;;;8.10;5.18;;;12.40;99.90;;;;;;5020651;28;20041;-77
2022/08/08 02:51:35;;;;;;;6.38;4.55;;;12.40;99.90;;;;;;5019714;28;20125;-77
2022/08/08 02:54:11;;;;;;;8.73;4.78;;;12.40;99.90;;;;;;4990013;28;20101;-76
2022/08/08 02:57:20;;;;;;;10.38;5.63;;;12.40;99.90;;;;;;5004842;28;20034;-77
2022/08/08 03:00:14;;;;;;;6.93;4.47;;;12.30;99.90;;;;;;5010120;28;20045;-77
2022/08/08 03:03:14;;;;;;;9.13;5.45;;;12.30;99.90;;;;;;5007460;28;20407;-76
2022/08/08 03:06:22;;;;;;;6.93;4.60;;;12.30;99.90;;;;;;4991866;28;20037;-77
2022/08/08 03:09:16;;;;;;;8.52;4.28;;;12.30;99.90;;;;;;5011143;28;20069;-76
2022/08/08 03:11:53;;;;;;;6.75;4.45;;;12.20;99.90;;;;;;5021085;28;20396;-76
2022/08/08 03:14:41;;;;;;;7.35;4.55;;;12.20;99.90;;;;;;4988470;28;20029;-77
2022/08/08 03:17:33;;;;;;;8.43;4.68;;;12.30;99.90;;;;;;5006983;28;20041;-77
2022/08/08 03:20:05;;;;;;;6.20;4.63;;;12.20;99.90;;;;;;4969856;28;20053;-77
2022/08/08 03:22:33;;;;;;;10.52;4.60;;;12.20;99.90;;;;;;4990241;28;20415;-76
2022/08/08 03:25:05;;;;;;;5.15;4.13;;;12.20;99.90;;;;;;4986188;28;20038;-76
2022/08/08 03:27:36;;;;;;;5.95;4.35;;;12.20;99.90;;;;;;5005760;28;20052;-78
2022/08/08 03:30:11;;;;;;;8.98;4.53;;;12.20;99.90;;;;;;5019859;28;20041;-76
2022/08/08 03:35:23;;;;;;;6.85;4.38;;;12.20;99.90;;;;;;4992371;28;20122;-77
2022/08/08 03:37:51;;;;;;;7.00;5.28;;;12.30;99.90;;;;;;4987574;28;20042;-77
2022/08/08 03:40:19;;;;;;;9.55;4.18;;;12.30;99.90;;;;;;4990798;28;20034;-76
2022/08/08 03:42:46;;;;;;;8.25;5.03;;;12.30;99.90;;;;;;4989400;28;20575;-76
2022/08/08 03:45:17;;;;;;;8.88;4.70;;;12.30;99.90;;;;;;5003651;28;20042;-75
2022/08/08 03:47:53;;;;;;;8.27;4.68;;;12.30;99.90;;;;;;4975675;28;20034;-77
2022/08/08 03:50:19;;;;;;;7.53;4.95;;;12.50;99.90;;;;;;5007463;28;20388;-75
2022/08/08 03:52:45;;;;;;;7.10;4.75;;;12.30;99.90;;;;;;4990838;28;20045;-77
2022/08/08 03:55:13;;;;;;;7.18;4.75;;;12.40;99.90;;;;;;5005946;28;20440;-78
2022/08/08 03:57:47;;;;;;;9.38;5.03;;;12.30;99.90;;;;;;4989549;28;20096;-77
2022/08/08 04:00:15;;;;;;;10.00;4.85;;;12.30;99.90;;;;;;4992910;28;20077;-77
2022/08/08 04:02:41;;;;;;;7.32;4.10;;;12.30;99.90;;;;;;4989411;28;20041;-77
2022/08/08 04:05:08;;;;;;;5.97;4.07;;;12.30;99.90;;;;;;5005805;28;20124;-77
2022/08/08 04:07:38;;;;;;;7.25;4.57;;;12.30;99.90;;;;;;5021458;28;20128;-77
2022/08/08 04:10:06;;;;;;;5.15;3.92;;;12.30;99.90;;;;;;4977536;28;20057;-77
2022/08/08 04:12:32;;;;;;;5.72;4.38;;;12.30;99.90;;;;;;5004605;28;20034;-78
2022/08/08 04:14:58;;;;;;;6.53;4.65;;;12.30;99.90;;;;;;5005735;28;20044;-75
2022/08/08 04:17:23;;;;;;;8.43;5.05;;;12.30;99.90;;;;;;5007386;28;20045;-77
2022/08/08 04:19:49;;;;;;;6.40;4.55;;;12.30;99.90;;;;;;5013253;28;20092;-76
2022/08/08 04:22:15;;;;;;;9.02;4.68;;;12.10;99.90;;;;;;4993859;28;20045;-77
2022/08/08 04:24:40;;;;;;;11.38;4.78;;;12.00;99.90;;;;;;4993078;28;20483;-78
2022/08/08 04:27:06;;;;;;;10.38;5.10;;;12.00;99.90;;;;;;4994884;28;20145;-78
2022/08/08 04:29:32;;;;;;;7.78;4.55;;;11.90;99.90;;;;;;5012880;28;20048;-77
2022/08/08 04:31:58;;;;;;;10.18;4.68;;;11.90;99.90;;;;;;4993169;28;20049;-77
2022/08/08 04:34:23;;;;;;;11.85;5.13;;;11.80;99.90;;;;;;5012401;28;20094;-77
2022/08/08 04:36:49;;;;;;;8.80;4.43;;;11.90;99.90;;;;;;4995319;28;20124;-77
2022/08/08 04:39:15;;;;;;;8.00;4.40;;;11.90;99.90;;;;;;4994211;28;20064;-76
2022/08/08 04:41:41;;;;;;;9.75;4.32;;;11.90;99.90;;;;;;4992702;28;20030;-76
2022/08/08 04:44:06;;;;;;;9.15;5.03;;;12.00;99.90;;;;;;4996482;28;20034;-77
2022/08/08 04:46:32;;;;;;;10.40;4.80;;;12.00;99.90;;;;;;4992665;28;20048;-77
2022/08/08 04:48:58;;;;;;;9.73;4.88;;;12.10;99.90;;;;;;5008454;28;20398;-77
2022/08/08 04:51:23;;;;;;;9.50;5.22;;;12.10;99.90;;;;;;5006308;28;20046;-78
2022/08/08 04:53:49;;;;;;;8.50;4.25;;;12.30;99.90;;;;;;5024399;28;20045;-78
2022/08/08 04:56:17;;;;;;;9.45;4.85;;;12.30;99.90;;;;;;4997980;28;20120;-75
2022/08/08 04:58:43;;;;;;;7.03;4.82;;;12.40;99.90;;;;;;4982383;28;20038;-70
2022/08/08 05:01:09;;;;;;;8.27;4.93;;;12.50;99.90;;;;;;4998014;28;20398;-70
2022/08/08 05:03:35;;;;;;;7.55;4.57;;;12.60;99.90;;;;;;4998873;28;20145;-70
2022/08/08 05:06:01;;;;;;;6.75;4.57;;;12.60;99.90;;;;;;4980092;28;20350;-70
2022/08/08 05:08:27;;;;;;;7.75;4.75;;;12.70;99.90;;;;;;4994305;28;21494;-69
2022/08/08 05:10:53;;;;;;;6.65;3.75;;;12.70;99.90;;;;;;5017430;28;20042;-69
2022/08/08 05:13:20;;;;;;;8.35;4.18;;;12.80;99.90;;;;;;5005482;28;20088;-70
2022/08/08 05:15:46;;;;;;;8.07;4.50;;;12.90;99.90;;;;;;4989631;28;20038;-70
2022/08/08 05:18:11;;;;;;;5.55;4.32;;;12.90;99.90;;;;;;4988616;28;20681;-69
2022/08/08 05:20:38;;;;;;;9.75;4.38;;;13.00;99.90;;;;;;4973060;28;20058;-70
2022/08/08 05:23:04;;;;;;;6.10;4.15;;;13.00;99.90;;;;;;5016069;28;20049;-69
2022/08/08 05:25:30;;;;;;;4.95;3.72;;;13.10;99.90;;;;;;4966912;28;20520;-70
2022/08/08 05:27:56;;;;;;;8.38;3.75;;;13.20;99.90;;;;;;5008965;28;20667;-70
2022/08/08 05:30:22;;;;;;;6.32;3.97;;;13.30;99.90;;;;;;5020529;28;20043;-69
2022/08/08 05:32:48;;;;;;;7.00;3.85;;;13.30;99.90;;;;;;4987275;28;20435;-70
2022/08/08 05:35:13;;;;;;;7.43;3.85;;;13.40;99.90;;;;;;5005430;28;20073;-70
2022/08/08 05:37:47;;;;;;;7.75;4.10;;;13.50;99.90;;;;;;5003179;28;20042;-70
2022/08/08 05:40:13;;;;;;;4.85;3.53;;;13.60;99.90;;;;;;5003595;28;20269;-70
2022/08/08 05:42:44;;;;;;;8.73;4.30;;;13.70;99.90;;;;;;4987020;28;20057;-70
2022/08/08 05:45:15;;;;;;;5.03;3.55;;;13.80;99.90;;;;;;4987468;28;20050;-70
2022/08/08 05:47:41;;;;;;;7.13;4.13;;;13.80;99.90;;;;;;5007046;28;20042;-71
2022/08/08 05:50:08;;;;;;;7.57;3.90;;;13.90;99.90;;;;;;5004739;28;20045;-71
2022/08/08 05:52:35;;;;;;;5.50;3.58;;;14.00;99.90;;;;;;4987751;28;20088;-73
2022/08/08 05:55:08;;;;;;;5.90;3.50;;;14.00;99.90;;;;;;4987408;28;20099;-72
2022/08/08 05:57:36;;;;;;;5.95;3.97;;;14.10;99.90;;;;;;5004290;28;20042;-71
2022/08/08 06:00:06;;;;;;;5.88;4.30;;;14.20;99.90;;;;;;5019621;28;20085;-72
2022/08/08 06:05:19;;;;;;;8.02;3.90;;;14.40;99.90;;;;;;5015421;28;20042;-72
2022/08/08 06:07:47;;;;;;;8.35;4.05;;;14.50;99.90;;;;;;5000240;28;20046;-73
2022/08/08 06:10:18;;;;;;;6.13;3.97;;;14.50;99.90;;;;;;4988510;28;20121;-73
2022/08/08 06:12:44;;;;;;;7.13;3.60;;;14.60;99.90;;;;;;5003076;28;20051;-74
2022/08/08 06:15:10;;;;;;;5.90;4.00;;;14.70;99.90;;;;;;4986963;28;20060;-73
2022/08/08 06:17:39;;;;;;;8.88;3.88;;;14.40;99.90;;;;;;4987000;28;20125;-73
2022/08/08 06:20:11;;;;;;;8.52;4.65;;;14.90;99.90;;;;;;4983610;28;20112;-73
2022/08/08 06:22:37;;;;;;;7.38;3.50;;;15.00;99.90;;;;;;4967319;28;20137;-73
2022/08/08 06:25:04;;;;;;;7.63;3.78;;;15.10;99.90;;;;;;4967636;28;20049;-74
2022/08/08 06:27:36;;;;;;;7.93;4.32;;;15.20;99.90;;;;;;4971140;28;20415;-74
2022/08/08 06:30:06;;;;;;;8.15;3.80;;;15.40;99.90;;;;;;5000023;28;20559;-75
2022/08/08 06:32:54;;;;;;;7.90;3.72;;;15.50;99.90;;;;;;4999245;28;20491;-77
2022/08/08 06:35:20;;;;;;;6.00;3.50;;;15.70;99.90;;;;;;4986413;28;20052;-78
2022/08/08 06:37:48;;;;;;;9.43;3.67;;;15.80;99.90;;;;;;4986268;28;20046;-77
2022/08/08 06:40:14;;;;;;;9.15;3.63;;;15.90;99.90;;;;;;4984989;28;20419;-77
2022/08/08 06:42:50;;;;;;;5.13;3.45;;;16.00;99.90;;;;;;4985427;28;20113;-78
2022/08/08 06:45:19;;;;;;;7.30;3.72;;;16.10;99.90;;;;;;5000064;28;20519;-78
2022/08/08 06:47:45;;;;;;;7.65;3.30;;;16.20;99.90;;;;;;4985104;28;20049;-77
2022/08/08 06:50:11;;;;;;;5.28;3.38;;;16.30;99.90;;;;;;4987573;28;20103;-78
2022/08/08 06:52:38;;;;;;;7.90;3.60;;;16.40;99.90;;;;;;4951123;28;20045;-77
2022/08/08 06:55:05;;;;;;;10.35;3.67;;;16.50;99.90;;;;;;4983265;28;20139;-77
2022/08/08 06:57:32;;;;;;;5.55;3.30;;;16.70;99.90;;;;;;4988203;28;20037;-76
2022/08/08 06:59:58;;;;;;;8.07;3.35;;;16.80;99.90;;;;;;5018040;28;20041;-77
2022/08/08 07:02:27;;;;;;;5.85;2.83;;;16.90;99.90;;;;;;5003421;28;20411;-77
2022/08/08 07:05:00;;;;;;;6.10;2.80;;;17.00;99.90;;;;;;5019318;28;20056;-76
2022/08/08 07:07:52;;;;;;;8.93;3.33;;;17.20;99.90;;;;;;4984112;28;20112;-74
2022/08/08 07:10:23;;;;;;;5.60;3.30;;;17.30;99.90;;;;;;4985275;28;20041;-74
2022/08/08 07:12:53;;;;;;;7.85;3.05;;;17.50;99.90;;;;;;5002287;28;20092;-77
2022/08/08 07:15:46;;;;;;;6.40;2.90;;;17.60;99.90;;;;;;5018469;28;20057;-78
2022/08/08 07:18:21;;;;;;;6.25;2.90;;;17.80;99.90;;;;;;5003940;28;20548;-78
2022/08/08 07:20:51;;;;;;;8.70;2.92;;;18.00;99.90;;;;;;4987219;28;20057;-77
2022/08/08 07:23:16;;;;;;;7.47;3.22;;;18.20;99.90;;;;;;4968086;28;20403;-77
2022/08/08 07:25:45;;;;;;;7.25;2.80;;;18.40;99.90;;;;;;4973996;28;20275;-75
2022/08/08 07:28:14;;;;;;;6.07;2.80;;;18.60;99.90;;;;;;5006702;28;20038;-76
2022/08/08 07:30:41;;;;;;;6.05;2.53;;;18.80;99.90;;;;;;4980059;28;20034;-76
2022/08/08 07:33:10;;;;;;;3.75;2.63;;;19.00;99.90;;;;;;4986320;28;20119;-76
2022/08/08 07:35:38;;;;;;;6.60;3.05;;;19.10;99.90;;;;;;4984695;28;20052;-77
2022/08/08 07:38:04;;;;;;;5.45;2.65;;;19.30;99.90;;;;;;4965114;28;20072;-74
2022/08/08 07:40:34;;;;;;;6.60;2.63;;;19.60;99.90;;;;;;4980248;28;20117;-76
2022/08/08 07:43:02;;;;;;;8.68;5.68;;;19.70;99.90;;;;;;4962880;28;20060;-76
2022/08/08 07:45:28;;;;;;;6.03;4.28;;;19.90;99.90;;;;;;4974592;28;20524;-77
2022/08/08 07:47:57;;;;;;;4.85;2.65;;;19.90;99.90;;;;;;4962907;28;20511;-75
2022/08/08 07:50:23;;;;;;;4.32;2.15;;;19.90;99.90;;;;;;4976775;28;20129;-76
2022/08/08 07:53:02;;;;;;;3.60;2.33;;;19.90;99.90;;;;;;4964870;28;20046;-76
2022/08/08 07:55:29;;;;;;;4.43;2.42;;;19.90;99.90;;;;;;4975759;28;20623;-76
2022/08/08 07:58:09;;;;;;;3.63;2.13;;;19.90;99.90;;;;;;4979676;28;20046;-76
2022/08/08 08:00:51;;;;;;;7.53;2.55;;;19.90;99.90;;;;;;4981287;28;20129;-78
2022/08/08 08:03:21;;;;;;;6.17;2.10;;;19.90;99.90;;;;;;4946489;28;20046;-74
2022/08/08 08:05:52;;;;;;;6.15;2.35;;;19.90;99.90;;;;;;4963416;28;21042;-76
2022/08/08 08:08:20;;;;;;;4.73;2.10;;;19.90;99.90;;;;;;5009710;28;20053;-76
2022/08/08 08:10:49;;;;;;;5.13;2.40;;;19.90;99.90;;;;;;4976618;28;20314;-75
2022/08/08 08:13:21;;;;;;;4.68;2.55;;;20.00;99.90;;;;;;4991751;28;20174;-76
2022/08/08 08:16:00;;;;;;;5.18;2.63;;;20.10;99.90;;;;;;4980360;28;20053;-76
2022/08/08 08:18:32;;;;;;;5.50;2.28;;;20.10;99.90;;;;;;4966455;28;20589;-74
2022/08/08 08:21:01;;;;;;;4.05;2.08;;;20.20;99.90;;;;;;4999459;28;20273;-76
2022/08/08 08:23:27;;;;;;;7.03;2.45;;;20.30;99.90;;;;;;4977112;28;20586;-78
2022/08/08 08:25:52;;;;;;;3.67;2.10;;;20.50;99.90;;;;;;4975367;28;20093;-76
2022/08/08 08:28:20;;;;;;;5.03;2.05;;;20.50;99.90;;;;;;4967419;28;20052;-75
2022/08/08 08:30:45;;;;;;;5.40;2.17;;;20.60;99.90;;;;;;4972977;28;20066;-75
2022/08/08 08:33:11;;;;;;;3.90;1.80;;;20.70;99.90;;;;;;4985070;28;20496;-75
2022/08/08 08:35:38;;;;;;;5.43;2.40;;;20.80;99.90;;;;;;4994890;28;20530;-75
2022/08/08 08:38:04;;;;;;;3.55;2.20;;;20.80;99.90;;;;;;4965572;28;20043;-74
2022/08/08 08:40:30;;;;;;;3.88;2.00;;;20.80;99.90;;;;;;4996978;28;20040;-74
2022/08/08 08:42:58;;;;;;;4.25;2.10;;;20.90;99.90;;;;;;4998714;28;20041;-75
2022/08/08 08:45:24;;;;;;;7.65;2.15;;;21.00;99.90;;;;;;4964067;28;20042;-76
2022/08/08 08:47:52;;;;;;;7.20;2.00;;;21.20;99.90;;;;;;4938983;28;20045;-76
2022/08/08 08:50:18;;;;;;;4.40;2.10;;;21.30;99.90;;;;;;4972879;28;20046;-76
2022/08/08 08:52:44;;;;;;;5.40;1.90;;;21.50;99.90;;;;;;4982070;28;20694;-75
2022/08/08 08:55:14;;;;;;;5.95;2.30;;;21.60;99.90;;;;;;4949740;28;20061;-76
2022/08/08 08:57:42;;;;;;;3.30;2.05;;;21.70;99.90;;;;;;4999864;28;20050;-75
2022/08/08 09:00:10;;;;;;;5.32;1.92;;;21.80;99.90;;;;;;4964048;28;20046;-75
2022/08/08 09:02:37;;;;;;;6.50;1.98;;;22.00;99.90;;;;;;4968831;28;20046;-76
2022/08/08 09:05:08;;;;;;;3.78;1.95;;;22.10;99.90;;;;;;4972763;28;20502;-75
2022/08/08 09:07:35;;;;;;;4.43;2.17;;;22.00;99.90;;;;;;4958946;28;20042;-74
2022/08/08 09:10:03;;;;;;;6.75;1.88;;;22.10;99.90;;;;;;4955690;28;20058;-75
2022/08/08 09:12:32;;;;;;;11.05;2.65;;;22.20;99.90;;;;;;4976302;28;20611;-75
2022/08/08 09:14:59;;;;;;;21.42;2.83;;;22.40;99.90;;;;;;5006301;28;20043;-75
2022/08/08 09:17:26;;;;;;;87.47;7.53;;;22.60;99.90;;;;;;4947659;28;20089;-73
2022/08/08 09:19:55;;;;;;;5.28;2.05;;;22.60;99.60;;;;;;4975767;28;20096;-74
2022/08/08 09:22:21;;;;;;;5.32;1.95;;;22.60;99.40;;;;;;4996087;28;20452;-74
2022/08/08 09:24:51;;;;;;;4.03;1.88;;;22.70;99.30;;;;;;4965690;28;20038;-73
2022/08/08 09:27:18;;;;;;;4.10;1.70;;;22.90;98.50;;;;;;4972746;28;20288;-74
2022/08/08 09:30:00;;;;;;;5.78;1.73;;;23.10;98.60;;;;;;4972096;28;20053;-74
2022/08/08 09:32:44;;;;;;;8.00;2.03;;;23.30;98.10;;;;;;4974480;28;20211;-74
2022/08/08 09:35:24;;;;;;;4.15;1.63;;;23.50;96.90;;;;;;4972863;28;20551;-74
2022/08/08 09:37:54;;;;;;;3.40;1.60;;;23.70;97.40;;;;;;4971389;28;20101;-74
2022/08/08 09:40:23;;;;;;;4.20;1.70;;;23.80;96.80;;;;;;4993457;28;20471;-74
2022/08/08 09:43:10;;;;;;;4.93;1.65;;;23.60;96.60;;;;;;4998492;28;20038;-74
2022/08/08 09:45:47;;;;;;;4.18;2.03;;;23.60;95.90;;;;;;4982649;28;20066;-74
2022/08/08 09:48:16;;;;;;;1.85;1.33;;;23.60;96.10;;;;;;4975703;28;20381;-74
2022/08/08 09:50:44;;;;;;;4.20;1.85;;;23.20;95.90;;;;;;4975827;28;20069;-75
2022/08/08 09:53:17;;;;;;;2.50;1.40;;;23.10;96.60;;;;;;4989397;28;20034;-75
2022/08/08 09:55:44;;;;;;;5.63;1.52;;;22.80;96.30;;;;;;4975792;28;20567;-75
2022/08/08 09:58:18;;;;;;;4.20;1.25;;;22.60;96.20;;;;;;4975812;28;20061;-76
2022/08/08 10:00:47;;;;;;;5.32;1.30;;;22.60;95.30;;;;;;4968067;28;20067;-75
2022/08/08 10:03:15;;;;;;;2.95;1.60;;;22.50;96.40;;;;;;4988894;28;20050;-75
2022/08/08 10:05:40;;;;;;;4.25;1.45;;;22.50;96.30;;;;;;4969441;28;20047;-75
2022/08/08 10:08:07;;;;;;;2.78;1.40;;;22.40;96.60;;;;;;4964754;28;20038;-74
2022/08/08 10:10:41;;;;;;;3.58;1.60;;;22.40;96.80;;;;;;4973787;28;20034;-75
2022/08/08 10:13:18;;;;;;;4.03;1.92;;;22.50;96.70;;;;;;4986733;28;20045;-75
2022/08/08 10:15:52;;;;;;;5.90;1.70;;;22.50;97.40;;;;;;4959663;28;20092;-75
2022/08/08 10:18:30;;;;;;;2.10;1.58;;;22.40;97.00;;;;;;4975172;28;20113;-75
2022/08/08 10:21:10;;;;;;;4.53;1.85;;;22.30;96.60;;;;;;4985339;28;20068;-75
2022/08/08 10:23:42;;;;;;;4.60;1.50;;;22.60;97.60;;;;;;4994627;28;20484;-75
2022/08/08 10:26:25;;;;;;;4.68;1.55;;;22.80;96.80;;;;;;4983835;28;20050;-75
2022/08/08 10:29:00;;;;;;;4.57;1.67;;;23.10;95.60;;;;;;4995421;28;20041;-74
2022/08/08 10:34:17;;;;;;;3.38;1.10;;;23.00;95.60;;;;;;5022558;28;20061;-74
2022/08/08 10:36:43;;;;;;;1.83;1.38;;;23.10;95.60;;;;;;5026987;28;20034;-75
2022/08/08 10:39:15;;;;;;;5.43;1.35;;;23.30;95.50;;;;;;4968207;28;20475;-74
2022/08/08 10:41:43;;;;;;;1.20;1.10;;;23.40;95.00;;;;;;5001514;28;20037;-75
2022/08/08 10:44:11;;;;;;;2.13;1.20;;;23.60;94.30;;;;;;4995360;28;20415;-74
2022/08/08 10:46:37;;;;;;;3.97;1.52;;;23.80;93.90;;;;;;5004149;28;20077;-75
2022/08/08 10:49:03;;;;;;;2.25;1.08;;;23.90;93.10;;;;;;5010313;28;20046;-75
2022/08/08 10:51:35;;;;;;;2.78;1.30;;;23.70;92.80;;;;;;5026531;28;20054;-75
2022/08/08 10:54:01;;;;;;;;;;;23.50;92.50;;;;;;5010719;28;20045;-74
2022/08/08 10:56:33;;;;;;;2.55;1.05;;;23.20;94.30;;;;;;4990946;28;19928;-74
2022/08/08 10:58:59;;;;;;;4.03;1.40;;;22.90;95.20;;;;;;5003587;28;20103;-74
2022/08/08 11:01:29;;;;;;;3.28;1.35;;;22.70;95.80;;;;;;4972876;28;20045;-74
2022/08/08 11:03:58;;;;;;;2.30;1.27;;;22.30;96.70;;;;;;5003080;28;20511;-75
2022/08/08 11:06:29;;;;;;;2.85;1.63;;;22.20;97.00;;;;;;4973270;28;20038;-74
2022/08/08 11:09:07;;;;;;;3.25;1.70;;;22.10;97.10;;;;;;4990578;28;20037;-73
2022/08/08 11:11:40;;;;;;;3.00;1.60;;;21.90;97.30;;;;;;4988450;28;20503;-75
2022/08/08 11:14:07;;;;;;;2.17;1.60;;;21.70;97.70;;;;;;4982529;28;20570;-74
2022/08/08 11:16:35;;;;;;;3.00;1.90;;;21.70;97.80;;;;;;5006591;28;20048;-75
2022/08/08 11:19:02;;;;;;;3.40;1.67;;;21.60;98.10;;;;;;5013457;28;20384;-75
2022/08/08 11:21:33;;;;;;;4.22;1.70;;;21.60;98.20;;;;;;4999742;28;20046;-75
2022/08/08 11:24:03;;;;;;;6.43;1.93;;;21.60;98.30;;;;;;4999237;28;20527;-72
2022/08/08 11:26:32;;;;;;;5.13;1.83;;;21.70;98.40;;;;;;4984411;28;20089;-71
2022/08/08 11:32:32;;;;;;;2.42;1.50;;;21.70;99.10;;;;;;5003829;28;20073;-71
2022/08/08 11:35:10;;;;;;;2.23;1.70;;;21.80;98.70;;;;;;4999682;28;20196;-72
2022/08/08 11:37:38;;;;;;;3.63;1.65;;;21.90;98.50;;;;;;4980855;28;20077;-71
2022/08/08 11:40:06;;;;;;;1.98;1.27;;;22.00;98.50;;;;;;4984527;28;20120;-72
2022/08/08 11:42:32;;;;;;;1.92;1.35;;;22.00;98.40;;;;;;4967777;28;20120;-71
2022/08/08 11:44:59;;;;;;;5.28;1.35;;;22.10;98.00;;;;;;5009595;28;20103;-72
2022/08/08 11:47:43;;;;;;;6.03;1.77;;;22.20;97.60;;;;;;5021923;28;20392;-72
2022/08/08 11:50:12;;;;;;;3.63;2.22;;;22.30;97.60;;;;;;5005313;28;20368;-72
2022/08/08 11:52:38;;;;;;;4.57;1.88;;;22.30;97.40;;;;;;4996108;28;20038;-71
2022/08/08 11:55:26;;;;;;;2.65;1.60;;;22.40;97.50;;;;;;5006100;28;20099;-71
2022/08/08 11:58:09;;;;;;;1.60;1.50;;;22.50;96.40;;;;;;4977725;28;20037;-72
2022/08/08 12:00:46;;;;;;;4.10;1.38;;;22.80;96.40;;;;;;5025938;28;20034;-72
2022/08/08 12:03:53;;;;;;;1.48;1.00;;;23.30;96.20;;;;;;4992943;28;20042;-71
2022/08/08 12:06:21;;;;;;;1.55;1.02;;;24.00;93.70;;;;;;4992711;28;20046;-72
2022/08/08 12:08:47;;;;;;;1.48;0.98;;;24.20;93.20;;;;;;5008790;28;20045;-71
2022/08/08 12:11:16;;;;;;;2.13;1.13;;;24.40;92.40;;;;;;5009283;28;20439;-71
2022/08/08 12:13:42;;;;;;;2.40;1.30;;;24.80;92.50;;;;;;4992683;28;20085;-72
2022/08/08 12:16:16;;;;;;;1.70;1.00;;;25.00;92.30;;;;;;4976775;28;20073;-71
2022/08/08 12:18:51;;;;;;;1.48;1.27;;;25.20;91.10;;;;;;4992701;28;20065;-72
2022/08/08 12:21:33;;;;;;;2.33;1.20;;;25.40;91.10;;;;;;4980273;28;20061;-72
2022/08/08 12:24:18;;;;;;;4.38;1.23;;;25.50;90.70;;;;;;4976487;28;20046;-72
2022/08/08 12:26:49;;;;;;;1.20;0.95;;;25.40;89.60;;;;;;5009030;28;20042;-71
2022/08/08 12:29:36;;;;;;;2.85;1.30;;;25.50;90.40;;;;;;4976651;28;20068;-72
2022/08/08 12:32:10;;;;;;;5.63;1.20;;;25.80;90.70;;;;;;4992733;28;20064;-72
2022/08/08 12:34:43;;;;;;;4.00;1.20;;;25.50;90.00;;;;;;4976415;28;20091;-72
2022/08/08 12:37:19;;;;;;;3.65;1.17;;;25.20;90.90;;;;;;4993304;28;20041;-71
2022/08/08 12:39:45;;;;;;;4.28;1.30;;;24.90;91.00;;;;;;4996063;28;20495;-71
2022/08/08 12:42:10;;;;;;;6.32;1.40;;;24.60;91.10;;;;;;4980572;28;20045;-71
2022/08/08 12:44:39;;;;;;;3.40;1.30;;;24.30;91.30;;;;;;5010491;28;20037;-71
2022/08/08 12:47:06;;;;;;;1.73;1.25;;;24.30;91.60;;;;;;5013970;28;20116;-71
2022/08/08 12:49:34;;;;;;;2.55;1.20;;;24.40;91.50;;;;;;4980241;28;20038;-71
2022/08/08 12:52:01;;;;;;;2.25;1.17;;;24.70;92.00;;;;;;5029068;28;20046;-71
2022/08/08 12:54:36;;;;;;;2.80;1.13;;;25.10;91.70;;;;;;4980053;28;20050;-71
2022/08/08 12:57:22;;;;;;;2.45;1.20;;;25.10;90.50;;;;;;4996472;28;20525;-71
2022/08/08 12:59:50;;;;;;;2.70;0.77;;;25.30;90.10;;;;;;4996105;28;20491;-71
2022/08/08 13:02:28;;;;;;;2.75;1.00;;;25.20;89.80;;;;;;5029002;28;20090;-72
2022/08/08 13:04:57;;;;;;;1.63;1.27;;;25.10;89.30;;;;;;5028820;28;20096;-72
2022/08/08 13:07:37;;;;;;;3.90;1.30;;;25.20;90.00;;;;;;4980415;28;20450;-72
2022/08/08 13:10:30;;;;;;;4.10;0.93;;;25.10;89.70;;;;;;5013408;28;20040;-72
2022/08/08 13:13:00;;;;;;;2.50;1.17;;;24.90;89.10;;;;;;4995737;28;20049;-72
2022/08/08 13:15:28;;;;;;;3.13;1.30;;;24.90;90.20;;;;;;5028674;28;20044;-72
2022/08/08 13:17:55;;;;;;;5.45;1.35;;;24.80;90.10;;;;;;4995966;28;20045;-72
2022/08/08 13:20:22;;;;;;;1.83;0.80;;;24.70;90.20;;;;;;4979525;28;20083;-72
2022/08/08 13:22:48;;;;;;;4.15;1.60;;;24.60;90.40;;;;;;4995502;28;20041;-72
2022/08/08 13:25:16;;;;;;;1.83;1.20;;;24.70;90.40;;;;;;4995637;28;20037;-72
2022/08/08 13:27:42;;;;;;;1.98;1.10;;;24.80;90.40;;;;;;5028449;28;20037;-72
2022/08/08 13:30:09;;;;;;;2.30;1.05;;;25.00;90.40;;;;;;4979321;28;20049;-71
2022/08/08 13:32:36;;;;;;;1.50;1.02;;;25.10;90.00;;;;;;5013157;28;20068;-71
2022/08/08 13:35:07;;;;;;;1.55;1.10;;;25.20;89.00;;;;;;5011766;28;20513;-72